createdAt,value
2023-04-11T00:00:45.348Z,46.0426
2023-04-11T00:01:46.473Z,46.0457
2023-04-11T00:03:11.511Z,46.0928
2023-04-11T00:03:50.040Z,45.9253
2023-04-11T00:04:51.189Z,45.8036
2023-04-11T00:05:52.106Z,45.8660
2023-04-11T00:06:53.083Z,45.9116
2023-04-11T00:07:54.033Z,46.0004
2023-04-11T00:08:55.596Z,45.9955
2023-04-11T00:09:56.763Z,46.0885
2023-04-11T00:10:57.715Z,45.5711
2023-04-11T00:11:58.603Z,45.8738
2023-04-11T00:12:59.523Z,45.6252
2023-04-11T00:14:00.472Z,45.6195
2023-04-11T00:15:01.409Z,45.9845
2023-04-11T00:16:02.669Z,45.4791
2023-04-11T00:17:03.594Z,45.7360
2023-04-11T00:18:04.474Z,46.3800
2023-04-11T00:19:05.345Z,45.8555
2023-04-11T00:20:06.272Z,46.1737
2023-04-11T00:21:07.229Z,45.8504
2023-04-11T00:22:08.171Z,45.7151
2023-04-11T00:23:09.097Z,45.9618
2023-04-11T00:24:10.014Z,45.5518
2023-04-11T00:25:10.954Z,45.7520
2023-04-11T00:26:11.882Z,46.3014
2023-04-11T00:27:12.809Z,45.6888
2023-04-11T00:28:13.718Z,45.3706
2023-04-11T00:29:14.706Z,45.9612
2023-04-11T00:30:15.643Z,46.5563
2023-04-11T00:31:16.549Z,46.3111
2023-04-11T00:32:17.427Z,46.0489
2023-04-11T00:33:18.356Z,46.2167
2023-04-11T00:34:19.236Z,46.1121
2023-04-11T00:35:20.222Z,45.9118
2023-04-11T00:36:21.363Z,46.0258
2023-04-11T00:37:22.300Z,45.5925
2023-04-11T00:38:23.263Z,45.6420
2023-04-11T00:39:24.190Z,46.4325
2023-04-11T00:40:25.136Z,46.7651
2023-04-11T00:41:26.008Z,46.0168
2023-04-11T00:42:26.926Z,46.0258
2023-04-11T00:43:27.957Z,46.3081
2023-04-11T00:44:28.895Z,46.3290
2023-04-11T00:45:29.883Z,47.1918
2023-04-11T00:46:30.797Z,47.3758
2023-04-11T00:47:31.874Z,47.7512
2023-04-11T00:48:32.796Z,48.2221
2023-04-11T00:49:33.713Z,47.9162
2023-04-11T00:50:34.738Z,48.9519
2023-04-11T00:51:35.621Z,48.2554
2023-04-11T00:52:36.564Z,48.1540
2023-04-11T00:53:37.508Z,48.2527
2023-04-11T00:54:38.414Z,48.5877
2023-04-11T00:55:39.391Z,48.7290
2023-04-11T00:56:40.309Z,48.9823
2023-04-11T00:57:41.286Z,49.4029
2023-04-11T00:58:42.310Z,49.0429
2023-04-11T00:59:43.390Z,49.3116
2023-04-11T01:00:44.419Z,49.5996
2023-04-11T01:01:45.765Z,49.7952
2023-04-11T01:02:47.446Z,49.9646
2023-04-11T01:03:48.702Z,49.9818
2023-04-11T01:04:49.758Z,50.5108
2023-04-11T01:05:50.750Z,50.4125
2023-04-11T01:06:51.763Z,50.4894
2023-04-11T01:07:52.785Z,50.9349
2023-04-11T01:08:54.686Z,51.3130
2023-04-11T01:09:56.110Z,51.4820
2023-04-11T01:10:57.122Z,51.5227
2023-04-11T01:11:58.168Z,51.7962
2023-04-11T01:12:59.138Z,51.4676
2023-04-11T01:14:00.152Z,51.5979
2023-04-11T01:15:01.169Z,51.6341
2023-04-11T01:16:02.161Z,51.9198
2023-04-11T01:17:03.327Z,51.7250
2023-04-11T01:18:04.447Z,52.1746
2023-04-11T01:19:05.380Z,51.9255
2023-04-11T01:20:06.381Z,51.4993
2023-04-11T01:21:07.372Z,51.9297
2023-04-11T01:22:08.328Z,52.0549
2023-04-11T01:23:09.363Z,51.5011
2023-04-11T01:24:10.375Z,51.6760
2023-04-11T01:25:11.566Z,51.8058
2023-04-11T01:26:12.631Z,51.3853
2023-04-11T01:27:13.656Z,50.9451
2023-04-11T01:28:14.694Z,51.2308
2023-04-11T01:29:15.790Z,51.0262
2023-04-11T01:30:16.806Z,51.0549
2023-04-11T01:31:17.940Z,51.4087
2023-04-11T01:32:18.932Z,51.2444
2023-04-11T01:33:20.008Z,51.3019
2023-04-11T01:34:21.022Z,51.5194
2023-04-11T01:35:22.012Z,51.5951
2023-04-11T01:36:23.014Z,51.3270
2023-04-11T01:37:24.000Z,51.4402
2023-04-11T01:38:24.942Z,51.6554
2023-04-11T01:39:25.922Z,51.4181
2023-04-11T01:40:26.989Z,51.5727
2023-04-11T01:41:27.969Z,51.5588
2023-04-11T01:42:28.968Z,51.5247
2023-04-11T01:43:29.961Z,51.3527
2023-04-11T01:44:30.979Z,51.0687
2023-04-11T01:45:31.959Z,51.0258
2023-04-11T01:46:32.911Z,50.7472
2023-04-11T01:47:34.006Z,50.9002
2023-04-11T01:48:35.209Z,50.5945
2023-04-11T01:49:36.257Z,50.9450
2023-04-11T01:50:37.298Z,50.8453
2023-04-11T01:51:38.221Z,50.8494
2023-04-11T01:52:39.274Z,51.0702
2023-04-11T01:53:40.325Z,50.8178
2023-04-11T01:54:41.307Z,50.8459
2023-04-11T01:55:42.320Z,51.0538
2023-04-11T01:56:43.324Z,51.0976
2023-04-11T01:57:44.326Z,51.5238
2023-04-11T01:58:45.292Z,51.5913
2023-04-11T01:59:46.316Z,51.3891
2023-04-11T02:00:47.325Z,51.5399
2023-04-11T02:01:48.599Z,51.8922
2023-04-11T02:02:49.836Z,51.6215
2023-04-11T02:03:51.268Z,51.4893
2023-04-11T02:04:52.307Z,51.2492
2023-04-11T02:05:53.315Z,51.4740
2023-04-11T02:06:54.345Z,51.3284
2023-04-11T02:07:55.387Z,51.1760
2023-04-11T02:08:56.973Z,51.5463
2023-04-11T02:09:58.226Z,51.3826
2023-04-11T02:10:59.270Z,51.3170
2023-04-11T02:12:00.224Z,51.2041
2023-04-11T02:13:01.308Z,51.4472
2023-04-11T02:14:02.454Z,51.4781
2023-04-11T02:15:03.487Z,51.4819
2023-04-11T02:16:04.510Z,51.6558
2023-04-11T02:17:05.526Z,51.2901
2023-04-11T02:18:06.647Z,51.4994
2023-04-11T02:19:07.656Z,51.5044
2023-04-11T02:20:08.668Z,50.9542
2023-04-11T02:21:09.661Z,50.9783
2023-04-11T02:22:10.687Z,50.7263
2023-04-11T02:23:12.721Z,50.1613
2023-04-11T02:24:13.736Z,50.6236
2023-04-11T02:25:14.779Z,50.6820
2023-04-11T02:26:15.740Z,50.8847
2023-04-11T02:27:16.778Z,50.8119
2023-04-11T02:28:17.760Z,50.7614
2023-04-11T02:29:18.797Z,50.7036
2023-04-11T02:30:19.869Z,51.1512
2023-04-11T02:31:21.084Z,51.0973
2023-04-11T02:32:22.277Z,50.9607
2023-04-11T02:33:23.370Z,50.9814
2023-04-11T02:34:24.346Z,50.6643
2023-04-11T02:35:25.370Z,50.8743
2023-04-11T02:36:26.431Z,50.8472
2023-04-11T02:37:27.447Z,50.9717
2023-04-11T02:38:28.409Z,51.4137
2023-04-11T02:39:29.493Z,51.5408
2023-04-11T02:40:30.491Z,51.7629
2023-04-11T02:41:31.490Z,52.3387
2023-04-11T02:42:32.497Z,52.8912
2023-04-11T02:43:33.509Z,53.4830
2023-04-11T02:44:34.506Z,52.6967
2023-04-11T02:45:35.512Z,52.8134
2023-04-11T02:46:36.829Z,52.7866
2023-04-11T02:47:38.000Z,52.9582
2023-04-11T02:48:39.073Z,55.6312
2023-04-11T02:49:40.105Z,57.3339
2023-04-11T02:50:41.437Z,58.2011
2023-04-11T02:51:42.496Z,58.7891
2023-04-11T02:52:44.221Z,59.1002
2023-04-11T02:53:43.752Z,59.1494
2023-04-11T02:54:44.798Z,58.8103
2023-04-11T02:55:45.859Z,59.3238
2023-04-11T02:56:46.915Z,59.1706
2023-04-11T02:57:47.967Z,59.2600
2023-04-11T02:58:48.985Z,59.6556
2023-04-11T02:59:50.088Z,58.9642
2023-04-11T03:00:51.091Z,58.4996
2023-04-11T03:01:52.312Z,58.0063
2023-04-11T03:02:53.511Z,58.1737
2023-04-11T03:03:54.680Z,58.4584
2023-04-11T03:04:55.746Z,58.3489
2023-04-11T03:05:56.775Z,58.6269
2023-04-11T03:06:57.821Z,58.6335
2023-04-11T03:07:59.046Z,58.7907
2023-04-11T03:09:00.088Z,59.3750
2023-04-11T03:10:01.236Z,61.1630
2023-04-11T03:11:02.270Z,62.1359
2023-04-11T03:12:03.255Z,62.8321
2023-04-11T03:13:04.291Z,62.9705
2023-04-11T03:14:05.348Z,63.0229
2023-04-11T03:15:06.393Z,62.7218
2023-04-11T03:16:07.738Z,62.4770
2023-04-11T03:17:08.763Z,62.3301
2023-04-11T03:18:09.973Z,63.0424
2023-04-11T03:19:11.023Z,63.8997
2023-04-11T03:20:12.118Z,66.4027
2023-04-11T03:21:13.187Z,67.9323
2023-04-11T03:22:14.252Z,68.4856
2023-04-11T03:23:15.364Z,69.0079
2023-04-11T03:24:16.448Z,68.9914
2023-04-11T03:25:17.505Z,69.0297
2023-04-11T03:26:18.582Z,69.8881
2023-04-11T03:27:19.693Z,69.6315
2023-04-11T03:28:20.786Z,71.3048
2023-04-11T03:29:22.019Z,71.0150
2023-04-11T03:30:24.095Z,70.8085
2023-04-11T03:31:25.194Z,70.4919
2023-04-11T03:32:26.293Z,70.1811
2023-04-11T03:33:27.410Z,70.8867
2023-04-11T03:34:28.500Z,72.0443
2023-04-11T03:35:29.684Z,72.3240
2023-04-11T03:36:30.862Z,74.3774
2023-04-11T03:37:31.931Z,75.3716
2023-04-11T03:38:33.144Z,75.1848
2023-04-11T03:39:34.144Z,76.1741
2023-04-11T03:40:35.273Z,76.9700
2023-04-11T03:41:36.313Z,77.7167
2023-04-11T03:42:37.409Z,78.2928
2023-04-11T03:43:38.739Z,79.6639
2023-04-11T03:44:39.784Z,80.9231
2023-04-11T03:45:40.863Z,80.9342
2023-04-11T03:46:42.307Z,80.9177
2023-04-11T03:47:43.528Z,80.4297
2023-04-11T03:48:44.612Z,80.6568
2023-04-11T03:49:45.668Z,81.2231
2023-04-11T03:50:46.744Z,81.3444
2023-04-11T03:51:47.793Z,82.2372
2023-04-11T03:52:48.841Z,82.8119
2023-04-11T03:53:49.931Z,82.5618
2023-04-11T03:54:51.079Z,83.4269
2023-04-11T03:55:52.184Z,84.1314
2023-04-11T03:56:53.241Z,83.2452
2023-04-11T03:57:54.332Z,83.7092
2023-04-11T03:58:56.177Z,83.9458
2023-04-11T03:59:57.331Z,83.9977
2023-04-11T04:00:58.375Z,83.5157
2023-04-11T04:01:59.667Z,83.2387
2023-04-11T04:03:01.274Z,83.4809
2023-04-11T04:04:04.192Z,84.1542
2023-04-11T04:05:03.830Z,84.5645
2023-04-11T04:06:05.046Z,84.4443
2023-04-11T04:07:06.120Z,85.1329
2023-04-11T04:08:07.306Z,85.4204
2023-04-11T04:09:09.441Z,85.6009
2023-04-11T04:10:10.526Z,86.2227
2023-04-11T04:11:11.659Z,86.6949
2023-04-11T04:12:12.814Z,87.2695
2023-04-11T04:13:13.904Z,87.9498
2023-04-11T04:14:15.036Z,88.5220
2023-04-11T04:15:16.116Z,88.8054
2023-04-11T04:16:17.345Z,89.3925
2023-04-11T04:17:18.389Z,90.0538
2023-04-11T04:18:19.530Z,90.5283
2023-04-11T04:19:20.610Z,90.6627
2023-04-11T04:20:21.708Z,91.0629
2023-04-11T04:21:22.804Z,91.3103
2023-04-11T04:22:23.916Z,91.6813
2023-04-11T04:23:25.129Z,92.1488
2023-04-11T04:24:26.252Z,92.2755
2023-04-11T04:25:27.370Z,92.5075
2023-04-11T04:26:28.562Z,92.6112
2023-04-11T04:27:29.670Z,92.6722
2023-04-11T04:28:30.702Z,92.9871
2023-04-11T04:29:32.734Z,93.2174
2023-04-11T04:30:36.451Z,93.2494
2023-04-11T04:31:38.006Z,93.5446
2023-04-11T04:32:39.206Z,93.6341
2023-04-11T04:33:40.477Z,93.6555
2023-04-11T04:34:41.537Z,93.9668
2023-04-11T04:35:42.652Z,94.0582
2023-04-11T04:36:43.737Z,94.1912
2023-04-11T04:37:44.790Z,94.3982
2023-04-11T04:38:45.871Z,94.5161
2023-04-11T04:39:46.951Z,94.4842
2023-04-11T04:40:50.820Z,94.4854
2023-04-11T04:41:49.599Z,94.7085
2023-04-11T04:42:50.641Z,94.7578
2023-04-11T04:43:51.748Z,94.8502
2023-04-11T04:44:52.942Z,94.9425
2023-04-11T04:45:54.161Z,95.0344
2023-04-11T04:46:55.261Z,95.1517
2023-04-11T04:47:56.428Z,95.0970
2023-04-11T04:48:57.524Z,95.0619
2023-04-11T04:49:58.738Z,95.0538
2023-04-11T04:50:59.794Z,95.1871
2023-04-11T04:52:00.914Z,95.2206
2023-04-11T04:53:01.968Z,95.3194
2023-04-11T04:54:03.127Z,94.8694
2023-04-11T04:55:04.250Z,94.1762
2023-04-11T04:56:05.315Z,93.5637
2023-04-11T04:57:06.573Z,93.5221
2023-04-11T04:58:07.756Z,93.8413
2023-04-11T04:59:08.862Z,93.6138
2023-04-11T05:00:09.985Z,93.6556
2023-04-11T05:01:11.320Z,93.5313
2023-04-11T05:02:12.988Z,93.4343
2023-04-11T05:03:14.164Z,93.3788
2023-04-11T05:04:15.845Z,93.2033
2023-04-11T05:05:17.400Z,93.1702
2023-04-11T05:06:20.558Z,93.3139
2023-04-11T05:07:19.307Z,93.3504
2023-04-11T05:08:20.475Z,93.7699
2023-04-11T05:09:21.634Z,94.0439
2023-04-11T05:10:22.713Z,94.2799
2023-04-11T05:11:23.883Z,94.3255
2023-04-11T05:12:24.953Z,94.3955
2023-04-11T05:13:26.084Z,94.0770
2023-04-11T05:14:27.177Z,93.8643
2023-04-11T05:15:28.259Z,93.9281
2023-04-11T05:16:29.455Z,94.2527
2023-04-11T05:17:30.525Z,94.5978
2023-04-11T05:18:31.761Z,94.8478
2023-04-11T05:19:32.850Z,94.9784
2023-04-11T05:20:33.934Z,95.1478
2023-04-11T05:21:35.023Z,95.2709
2023-04-11T05:22:36.204Z,95.3110
2023-04-11T05:23:37.460Z,95.1098
2023-04-11T05:24:40.337Z,94.9392
2023-04-11T05:25:41.390Z,94.9984
2023-04-11T05:26:42.533Z,95.0091
2023-04-11T05:27:43.665Z,95.1931
2023-04-11T05:28:44.789Z,95.3249
2023-04-11T05:29:45.943Z,95.4437
2023-04-11T05:30:47.149Z,95.5113
2023-04-11T05:31:48.256Z,95.5347
2023-04-11T05:32:49.582Z,95.6499
2023-04-11T05:33:50.755Z,95.6604
2023-04-11T05:34:51.972Z,95.6410
2023-04-11T05:35:53.215Z,95.6564
2023-04-11T05:36:54.372Z,95.5880
2023-04-11T05:37:55.536Z,95.4559
2023-04-11T05:38:56.693Z,95.3198
2023-04-11T05:39:57.884Z,95.4156
2023-04-11T05:40:59.036Z,95.5218
2023-04-11T05:42:00.237Z,95.1503
2023-04-11T05:43:01.418Z,94.5330
2023-04-11T05:44:02.593Z,94.3631
2023-04-11T05:45:03.700Z,94.0915
2023-04-11T05:46:04.879Z,93.8993
2023-04-11T05:47:07.054Z,93.7544
2023-04-11T05:48:08.378Z,94.0455
2023-04-11T05:49:09.495Z,94.2775
2023-04-11T05:50:10.638Z,94.2482
2023-04-11T05:51:11.935Z,94.3010
2023-04-11T05:52:13.126Z,94.2755
2023-04-11T05:53:14.295Z,94.4246
2023-04-11T05:54:15.500Z,94.6007
2023-04-11T05:55:16.645Z,94.7818
2023-04-11T05:56:17.783Z,94.6994
2023-04-11T05:57:18.941Z,94.8057
2023-04-11T05:58:20.145Z,94.8288
2023-04-11T05:59:28.815Z,94.9589
2023-04-11T06:00:23.055Z,95.0777
2023-04-11T06:01:24.214Z,95.0973
2023-04-11T06:02:25.708Z,95.1706
2023-04-11T06:03:27.161Z,95.0600
2023-04-11T06:04:29.461Z,94.9020
2023-04-11T06:05:30.782Z,94.7315
2023-04-11T06:06:31.986Z,94.4882
2023-04-11T06:07:33.157Z,94.1915
2023-04-11T06:08:34.359Z,93.9703
2023-04-11T06:09:35.517Z,94.0810
2023-04-11T06:10:36.690Z,94.1638
2023-04-11T06:11:37.811Z,94.2199
2023-04-11T06:12:38.983Z,94.1881
2023-04-11T06:13:40.147Z,94.1442
2023-04-11T06:14:41.316Z,93.8592
2023-04-11T06:15:42.549Z,93.9737
2023-04-11T06:16:43.705Z,93.9169
2023-04-11T06:17:45.184Z,93.5711
2023-04-11T06:18:46.285Z,93.4582
2023-04-11T06:19:47.482Z,93.7282
2023-04-11T06:20:48.599Z,93.4632
2023-04-11T06:21:49.766Z,93.2517
2023-04-11T06:22:50.931Z,92.2325
2023-04-11T06:23:52.084Z,92.1599
2023-04-11T06:24:53.235Z,92.6630
2023-04-11T06:25:54.457Z,92.5095
2023-04-11T06:26:55.628Z,92.1478
2023-04-11T06:27:56.787Z,92.4764
2023-04-11T06:28:57.985Z,92.4725
2023-04-11T06:29:59.163Z,92.2246
2023-04-11T06:31:00.523Z,92.3417
2023-04-11T06:32:01.670Z,92.3640
2023-04-11T06:33:02.866Z,91.6999
2023-04-11T06:34:03.977Z,91.6759
2023-04-11T06:35:05.149Z,91.8838
2023-04-11T06:36:06.519Z,92.1211
2023-04-11T06:37:07.626Z,92.3215
2023-04-11T06:38:08.850Z,92.3393
2023-04-11T06:39:10.015Z,92.5468
2023-04-11T06:40:11.197Z,92.4495
2023-04-11T06:41:12.330Z,92.5207
2023-04-11T06:42:13.597Z,92.5444
2023-04-11T06:43:14.814Z,92.4097
2023-04-11T06:44:16.034Z,92.4698
2023-04-11T06:45:17.154Z,92.6523
2023-04-11T06:46:18.398Z,92.5280
2023-04-11T06:47:19.627Z,92.5446
2023-04-11T06:48:20.779Z,92.7338
2023-04-11T06:49:21.966Z,92.2907
2023-04-11T06:50:23.148Z,92.2780
2023-04-11T06:51:24.277Z,92.5058
2023-04-11T06:52:28.451Z,92.5691
2023-04-11T06:53:27.333Z,92.3107
2023-04-11T06:54:28.532Z,92.3877
2023-04-11T06:55:29.714Z,92.4694
2023-04-11T06:56:30.795Z,92.4133
2023-04-11T06:57:31.955Z,92.4787
2023-04-11T06:58:33.087Z,92.6624
2023-04-11T06:59:34.227Z,92.7189
2023-04-11T07:00:35.378Z,92.5891
2023-04-11T07:01:36.728Z,92.2725
2023-04-11T07:02:38.538Z,92.5942
2023-04-11T07:03:40.228Z,92.8530
2023-04-11T07:04:41.804Z,92.7715
2023-04-11T07:05:43.032Z,92.5538
2023-04-11T07:06:44.142Z,92.9614
2023-04-11T07:07:45.287Z,92.8321
2023-04-11T07:08:46.610Z,92.5336
2023-04-11T07:09:47.770Z,92.6396
2023-04-11T07:10:48.921Z,92.3231
2023-04-11T07:11:50.107Z,91.7110
2023-04-11T07:12:51.274Z,91.4078
2023-04-11T07:13:52.418Z,91.8615
2023-04-11T07:14:53.572Z,91.8536
2023-04-11T07:15:54.754Z,92.0607
2023-04-11T07:16:55.885Z,92.4187
2023-04-11T07:17:57.036Z,92.4187
2023-04-11T07:18:58.206Z,92.3410
2023-04-11T07:19:59.420Z,92.7458
2023-04-11T07:21:00.565Z,93.0228
2023-04-11T07:22:01.693Z,93.2484
2023-04-11T07:23:02.915Z,93.4085
2023-04-11T07:24:04.163Z,93.3019
2023-04-11T07:25:05.425Z,93.3094
2023-04-11T07:26:06.514Z,93.6671
2023-04-11T07:27:07.721Z,93.6821
2023-04-11T07:28:08.884Z,93.3220
2023-04-11T07:29:15.046Z,93.2339
2023-04-11T07:30:11.687Z,93.0020
2023-04-11T07:31:12.910Z,93.4333
2023-04-11T07:32:14.021Z,93.3796
2023-04-11T07:33:15.172Z,93.1287
2023-04-11T07:34:16.349Z,92.6439
2023-04-11T07:35:17.521Z,92.7136
2023-04-11T07:36:18.676Z,92.4632
2023-04-11T07:37:19.819Z,92.0446
2023-04-11T07:38:20.968Z,91.6612
2023-04-11T07:39:22.349Z,91.6119
2023-04-11T07:40:23.492Z,91.0644
2023-04-11T07:41:26.356Z,91.6027
2023-04-11T07:42:27.044Z,91.9562
2023-04-11T07:43:25.905Z,92.2722
2023-04-11T07:44:28.125Z,92.6482
2023-04-11T07:45:29.366Z,92.6248
2023-04-11T07:46:30.520Z,91.5553
2023-04-11T07:47:31.785Z,91.6742
2023-04-11T07:48:32.891Z,92.1983
2023-04-11T07:49:38.556Z,92.6445
2023-04-11T07:50:35.036Z,92.8549
2023-04-11T07:51:36.170Z,92.8257
2023-04-11T07:52:37.377Z,92.8212
2023-04-11T07:53:38.546Z,92.9226
2023-04-11T07:54:39.718Z,92.5012
2023-04-11T07:55:40.870Z,92.7517
2023-04-11T07:56:42.005Z,92.7607
2023-04-11T07:57:43.193Z,92.9351
2023-04-11T07:58:44.416Z,93.2030
2023-04-11T07:59:45.521Z,93.4138
2023-04-11T08:00:46.690Z,92.3802
2023-04-11T08:01:48.022Z,92.0129
2023-04-11T08:02:49.933Z,92.3386
2023-04-11T08:03:51.744Z,92.4875
2023-04-11T08:04:53.846Z,92.6015
2023-04-11T08:05:55.091Z,92.8128
2023-04-11T08:06:56.299Z,92.1356
2023-04-11T08:07:57.469Z,91.3438
2023-04-11T08:08:58.704Z,91.6804
2023-04-11T08:09:59.952Z,91.6103
2023-04-11T08:11:01.126Z,90.0123
2023-04-11T08:12:02.396Z,89.5569
2023-04-11T08:13:03.641Z,90.0400
2023-04-11T08:14:04.815Z,90.2845
2023-04-11T08:15:05.945Z,90.6497
2023-04-11T08:16:07.128Z,89.9489
2023-04-11T08:17:25.126Z,89.6800
2023-04-11T08:18:12.800Z,89.6802
2023-04-11T08:19:11.640Z,89.7052
2023-04-11T08:20:12.813Z,89.9353
2023-04-11T08:21:14.003Z,90.3792
2023-04-11T08:22:15.185Z,89.9989
2023-04-11T08:23:16.983Z,89.7048
2023-04-11T08:24:18.201Z,89.9839
2023-04-11T08:25:20.685Z,90.0119
2023-04-11T08:26:21.900Z,90.1021
2023-04-11T08:27:23.050Z,89.8557
2023-04-11T08:28:24.287Z,89.5976
2023-04-11T08:29:25.699Z,89.3419
2023-04-11T08:30:26.996Z,89.6873
2023-04-11T08:31:28.231Z,89.3297
2023-04-11T08:32:29.485Z,89.4760
2023-04-11T08:33:30.626Z,89.4288
2023-04-11T08:34:31.822Z,89.1115
2023-04-11T08:35:33.167Z,89.0048
2023-04-11T08:36:34.404Z,89.1144
2023-04-11T08:37:35.505Z,88.9873
2023-04-11T08:38:36.661Z,88.2558
2023-04-11T08:39:37.855Z,87.5119
2023-04-11T08:40:38.937Z,86.9336
2023-04-11T08:41:40.199Z,86.9217
2023-04-11T08:42:41.722Z,86.4923
2023-04-11T08:43:43.051Z,86.1370
2023-04-11T08:44:44.538Z,86.5137
2023-04-11T08:45:45.889Z,87.4285
2023-04-11T08:46:48.048Z,86.0919
2023-04-11T08:47:49.221Z,85.0558
2023-04-11T08:48:50.365Z,84.6897
2023-04-11T08:49:51.510Z,83.3686
2023-04-11T08:50:52.665Z,83.7086
2023-04-11T08:51:53.800Z,83.7132
2023-04-11T08:52:54.977Z,84.0960
2023-04-11T08:53:56.619Z,84.1453
2023-04-11T08:54:57.803Z,83.6797
2023-04-11T08:55:58.907Z,83.2271
2023-04-11T08:57:00.108Z,83.1246
2023-04-11T08:58:01.330Z,83.3034
2023-04-11T08:59:03.584Z,83.1966
2023-04-11T09:00:04.980Z,82.8584
2023-04-11T09:01:06.177Z,82.2992
2023-04-11T09:02:07.802Z,81.6496
2023-04-11T09:03:09.148Z,80.8779
2023-04-11T09:04:10.342Z,80.3220
2023-04-11T09:05:11.697Z,80.6100
2023-04-11T09:06:12.847Z,79.7415
2023-04-11T09:07:13.999Z,79.8826
2023-04-11T09:08:15.157Z,78.7140
2023-04-11T09:09:16.297Z,78.4489
2023-04-11T09:10:17.461Z,78.6805
2023-04-11T09:11:18.615Z,78.4057
2023-04-11T09:12:19.756Z,77.5312
2023-04-11T09:13:20.914Z,76.4471
2023-04-11T09:14:22.107Z,76.0074
2023-04-11T09:15:23.231Z,75.7609
2023-04-11T09:16:24.464Z,76.1700
2023-04-11T09:17:25.762Z,76.4756
2023-04-11T09:18:26.877Z,77.0216
2023-04-11T09:19:27.984Z,76.5661
2023-04-11T09:20:29.147Z,75.7436
2023-04-11T09:21:31.527Z,75.6900
2023-04-11T09:22:32.592Z,76.3105
2023-04-11T09:23:33.703Z,76.1038
2023-04-11T09:24:36.143Z,74.2841
2023-04-11T09:25:34.955Z,73.5656
2023-04-11T09:26:36.116Z,73.7483
2023-04-11T09:27:37.278Z,73.1151
2023-04-11T09:28:38.445Z,73.8487
2023-04-11T09:29:39.620Z,73.7315
2023-04-11T09:30:40.765Z,72.9058
2023-04-11T09:31:42.158Z,72.7774
2023-04-11T09:32:43.375Z,72.9432
2023-04-11T09:33:44.475Z,72.8375
2023-04-11T09:34:45.720Z,71.6189
2023-04-11T09:35:46.933Z,71.6717
2023-04-11T09:36:48.069Z,71.9124
2023-04-11T09:37:49.327Z,72.1896
2023-04-11T09:38:50.460Z,71.4920
2023-04-11T09:39:51.602Z,71.6633
2023-04-11T09:40:52.751Z,72.4564
2023-04-11T09:41:53.884Z,72.3161
2023-04-11T09:42:55.039Z,71.9323
2023-04-11T09:43:57.313Z,71.2368
2023-04-11T09:44:58.620Z,71.5476
2023-04-11T09:45:59.771Z,72.0513
2023-04-11T09:47:01.157Z,71.9681
2023-04-11T09:48:02.852Z,72.0348
2023-04-11T09:49:04.862Z,71.6205
2023-04-11T09:50:06.205Z,70.7019
2023-04-11T09:51:07.334Z,70.0558
2023-04-11T09:52:08.441Z,71.6709
2023-04-11T09:53:09.512Z,71.0768
2023-04-11T09:54:10.637Z,71.1070
2023-04-11T09:55:11.819Z,70.2842
2023-04-11T09:56:12.954Z,70.5882
2023-04-11T09:57:14.046Z,70.8440
2023-04-11T09:58:15.126Z,70.9025
2023-04-11T09:59:16.269Z,69.4148
2023-04-11T10:00:17.461Z,69.5346
2023-04-11T10:01:18.639Z,69.3472
2023-04-11T10:02:19.892Z,69.6024
2023-04-11T10:03:21.707Z,69.6251
2023-04-11T10:04:22.975Z,69.7724
2023-04-11T10:05:24.190Z,69.5014
2023-04-11T10:06:25.338Z,68.5128
2023-04-11T10:07:26.494Z,68.7447
2023-04-11T10:08:27.656Z,68.3707
2023-04-11T10:09:28.794Z,67.2108
2023-04-11T10:10:29.930Z,66.8080
2023-04-11T10:11:31.137Z,67.2456
2023-04-11T10:12:32.243Z,68.0353
2023-04-11T10:13:33.407Z,67.9135
2023-04-11T10:14:34.568Z,67.6847
2023-04-11T10:15:35.748Z,68.4850
2023-04-11T10:16:36.897Z,67.1117
2023-04-11T10:17:38.406Z,67.0792
2023-04-11T10:18:39.537Z,66.3610
2023-04-11T10:19:40.731Z,66.1525
2023-04-11T10:20:41.920Z,66.6218
2023-04-11T10:21:43.740Z,65.8695
2023-04-11T10:22:45.151Z,66.4443
2023-04-11T10:23:46.238Z,65.0013
2023-04-11T10:24:47.391Z,64.4352
2023-04-11T10:25:48.579Z,64.7824
2023-04-11T10:26:49.761Z,65.7607
2023-04-11T10:27:50.939Z,65.6107
2023-04-11T10:28:52.109Z,65.0057
2023-04-11T10:29:53.369Z,65.0753
2023-04-11T10:30:54.550Z,64.8765
2023-04-11T10:31:56.235Z,63.8935
2023-04-11T10:32:57.494Z,63.3746
2023-04-11T10:33:58.778Z,63.7748
2023-04-11T10:34:59.944Z,63.9124
2023-04-11T10:36:01.117Z,64.1433
2023-04-11T10:37:02.223Z,64.8329
2023-04-11T10:38:03.465Z,64.9784
2023-04-11T10:39:04.642Z,65.9931
2023-04-11T10:40:05.791Z,64.6641
2023-04-11T10:41:07.014Z,63.9910
2023-04-11T10:42:08.212Z,64.1657
2023-04-11T10:43:09.355Z,64.3036
2023-04-11T10:44:10.700Z,64.7291
2023-04-11T10:45:11.907Z,64.8214
2023-04-11T10:46:13.074Z,64.7741
2023-04-11T10:47:14.291Z,64.7906
2023-04-11T10:48:15.460Z,65.8004
2023-04-11T10:49:16.682Z,65.8586
2023-04-11T10:50:17.896Z,65.8939
2023-04-11T10:51:18.990Z,64.3259
2023-04-11T10:52:20.202Z,64.4486
2023-04-11T10:53:21.371Z,63.1944
2023-04-11T10:54:22.537Z,64.8785
2023-04-11T10:55:23.706Z,63.9838
2023-04-11T10:56:24.996Z,64.0848
2023-04-11T10:57:26.155Z,64.4859
2023-04-11T10:58:27.379Z,64.8966
2023-04-11T10:59:28.542Z,64.9700
2023-04-11T11:00:32.667Z,64.7607
2023-04-11T11:01:42.987Z,64.4083
2023-04-11T11:02:32.081Z,64.5491
2023-04-11T11:03:34.040Z,65.2650
2023-04-11T11:04:35.587Z,65.0141
2023-04-11T11:05:36.858Z,65.7318
2023-04-11T11:06:50.966Z,65.4959
2023-04-11T11:07:39.591Z,66.4339
2023-04-11T11:08:40.723Z,65.7928
2023-04-11T11:09:41.893Z,65.4840
2023-04-11T11:10:43.071Z,65.6297
2023-04-11T11:11:44.296Z,65.7470
2023-04-11T11:12:45.577Z,65.2772
2023-04-11T11:13:46.741Z,65.5732
2023-04-11T11:14:47.968Z,65.5995
2023-04-11T11:15:49.130Z,65.6583
2023-04-11T11:16:50.391Z,65.9360
2023-04-11T11:17:51.634Z,65.6942
2023-04-11T11:18:52.794Z,66.0778
2023-04-11T11:19:53.973Z,64.9856
2023-04-11T11:20:55.172Z,65.3698
2023-04-11T11:21:56.385Z,65.6219
2023-04-11T11:22:57.597Z,65.5701
2023-04-11T11:23:59.533Z,65.5610
2023-04-11T11:25:00.844Z,66.1385
2023-04-11T11:26:02.006Z,65.9348
2023-04-11T11:27:03.422Z,66.6381
2023-04-11T11:28:04.616Z,66.6797
2023-04-11T11:29:05.835Z,66.4589
2023-04-11T11:30:07.061Z,66.4637
2023-04-11T11:31:08.273Z,66.5485
2023-04-11T11:32:09.630Z,66.1408
2023-04-11T11:33:10.893Z,67.1801
2023-04-11T11:35:13.048Z,66.6510
2023-04-11T11:36:14.251Z,66.7372
2023-04-11T11:37:15.445Z,66.8656
2023-04-11T11:38:16.660Z,66.8987
2023-04-11T11:39:17.864Z,67.3163
2023-04-11T11:40:19.051Z,67.2995
2023-04-11T11:41:20.300Z,67.3375
2023-04-11T11:42:21.484Z,66.6524
2023-04-11T11:43:22.746Z,65.9351
2023-04-11T11:44:23.968Z,66.6365
2023-04-11T11:46:27.518Z,65.6799
2023-04-11T11:47:28.721Z,66.3625
2023-04-11T11:48:29.923Z,66.4237
2023-04-11T11:49:31.043Z,66.1897
2023-04-11T11:50:32.284Z,65.7418
2023-04-11T11:51:33.477Z,65.7890
2023-04-11T11:52:34.620Z,66.6716
2023-04-11T11:53:35.822Z,66.8311
2023-04-11T11:54:36.978Z,67.3446
2023-04-11T11:55:38.202Z,67.6684
2023-04-11T11:56:39.401Z,68.5110
2023-04-11T11:57:40.549Z,68.1212
2023-04-11T11:58:41.772Z,68.3755
2023-04-11T11:59:42.993Z,68.2166
2023-04-11T12:00:44.208Z,68.3901
2023-04-11T12:01:45.586Z,68.0061
2023-04-11T12:02:47.423Z,67.2359
2023-04-11T12:03:49.340Z,67.1311
2023-04-11T12:04:51.394Z,67.8862
2023-04-11T12:05:52.752Z,67.4674
2023-04-11T12:06:53.911Z,67.6917
2023-04-11T12:07:55.147Z,67.3450
2023-04-11T12:08:56.351Z,65.5913
2023-04-11T12:09:57.530Z,65.6465
2023-04-11T12:10:58.761Z,65.7562
2023-04-11T12:11:59.943Z,65.9565
2023-04-11T12:13:01.122Z,65.9805
2023-04-11T12:14:02.294Z,66.0725
2023-04-11T12:15:03.485Z,65.8949
2023-04-11T12:16:04.761Z,66.4937
2023-04-11T12:17:05.909Z,65.6804
2023-04-11T12:18:07.100Z,64.9339
2023-04-11T12:19:08.577Z,64.8896
2023-04-11T12:20:09.776Z,64.9780
2023-04-11T12:21:12.162Z,64.6974
2023-04-11T12:22:13.378Z,65.4368